RPVD

Details ICAO RPVD (DGT)
Name DUMAGUETE
Region Philippines
Timezone Asia/Manila (UTC+8.0)
Plans Departing 11
Arriving 9
Stats Elevation 15 ft / 5 m (AMSL)
Location 9.333714° 123.300473°
Runways 1
Magnetic Variation 1.270° W
Sunrise 2018-05-20 21:27:24 UTC / 2018-05-21 05:27:24 Local
Sunset 2018-05-21 10:02:11 UTC / 2018-05-21 18:02:11 Local
Advertisement - Login to hide

Runways

ID Width Length Bearing (true) Bearing (mag) Surface Threshold Offset Overrun Length
09 118 ft / 36 m 6,131 ft / 1,869 m 92.97° 94.24° Asphalt 0 ft / 0 m 182 ft / 55 m
27 118 ft / 36 m 6,131 ft / 1,869 m 272.98° 274.25° Asphalt 0 ft / 0 m 0 ft / 0 m

Map

Weather


0- 5 10 15 20 25 30 35+ Temperature / ° C

Clouds and Precipitation
Forecast for 2018-05-21 18:00 UTC. Updated 3 minutes ago

Ground ~20,000 ft ~40,000 ft Winds

METAR

RPVD 211500Z 22004KT 9999 FEW015 27/24 Q1009 RMK A2980

TAF

Not found

Frequencies

Tower 123.50 MHz TWR
Tower 129.70 MHz TWR
Warning: Do not use this data for real-world aviation or navigation. No guarantee of current accuracy is given.